Time;durP1;ratioP1;P1;durP2;ratioP2;P2;SDS_P1;SDS_P2;PMS_P1;PMS_P2;Temp;Humidity;BMP_temperature;BMP_pressure;BME280_temperature;BME280_humidity;BME280_pressure;Samples;Min_cycle;Max_cycle;Signal;HPM_P1;HPM_P2
2024/02/15 00:01:04;;;;;;;72.95;45.92;;;;;;;9.97;99.17;98652.94;4952055;28;20046;-70
2024/02/15 00:03:31;;;;;;;59.08;38.38;;;;;;;9.93;99.18;98646.38;4954091;28;20034;-69
2024/02/15 00:05:57;;;;;;;59.58;40.20;;;;;;;9.86;99.50;98637.59;4978413;28;20054;-71
2024/02/15 00:08:22;;;;;;;68.72;41.05;;;;;;;9.99;99.04;98654.34;4968213;28;20020;-70
2024/02/15 00:10:47;;;;;;;68.25;41.95;;;;;;;9.95;99.18;98645.13;4984271;28;20491;-71
2024/02/15 00:13:13;;;;;;;72.47;43.65;;;;;;;9.85;99.06;98627.91;4952975;28;20042;-69
2024/02/15 00:15:39;;;;;;;65.60;41.35;;;;;;;9.99;99.09;98650.88;4953113;28;20039;-69
2024/02/15 00:18:04;;;;;;;64.15;43.03;;;;;;;10.02;99.11;98653.09;4968054;28;20039;-70
2024/02/15 00:20:30;;;;;;;75.60;45.05;;;;;;;10.00;99.11;98652.50;4952042;28;20039;-71
2024/02/15 00:22:56;;;;;;;74.60;44.67;;;;;;;9.99;99.22;98650.88;4953264;28;20031;-70
2024/02/15 00:25:21;;;;;;;76.97;44.45;;;;;;;9.98;99.31;98649.22;4951814;29;20147;-69
2024/02/15 00:27:46;;;;;;;67.13;42.00;;;;;;;9.99;99.49;98645.50;4967911;28;20078;-69
2024/02/15 00:30:13;;;;;;;63.95;40.60;;;;;;;9.95;98.96;98636.22;4959111;28;20395;-69
2024/02/15 00:32:39;;;;;;;61.08;39.42;;;;;;;10.01;99.36;98648.78;4987943;28;20034;-70
2024/02/15 00:35:09;;;;;;;69.07;40.80;;;;;;;10.00;98.96;98641.72;4957229;28;20043;-69
2024/02/15 00:37:34;;;;;;;60.85;41.25;;;;;;;10.01;99.38;98648.78;4967189;28;20082;-70
2024/02/15 00:39:59;;;;;;;73.85;43.50;;;;;;;10.00;99.77;98649.81;4953052;28;20019;-69
2024/02/15 00:42:25;;;;;;;80.57;47.63;;;;;;;10.02;99.48;98645.00;4951846;29;20051;-69
2024/02/15 00:44:51;;;;;;;75.68;43.85;;;;;;;10.05;99.06;98647.25;4983982;28;20106;-70
2024/02/15 00:47:18;;;;;;;71.82;43.10;;;;;;;9.98;99.34;98639.28;4960662;28;20040;-72
2024/02/15 00:49:44;;;;;;;86.07;47.92;;;;;;;9.96;99.30;98637.88;4967261;28;20438;-71
2024/02/15 00:52:10;;;;;;;88.72;48.45;;;;;;;9.89;99.46;98634.44;4951781;29;20138;-71
2024/02/15 00:54:35;;;;;;;80.70;46.92;;;;;;;9.83;99.36;98627.28;4951733;29;20031;-72
2024/02/15 00:57:01;;;;;;;79.22;45.75;;;;;;;9.95;99.66;98652.34;4983619;28;20442;-71
2024/02/15 00:59:26;;;;;;;82.78;48.05;;;;;;;9.85;99.62;98627.91;4951623;29;20030;-72
2024/02/15 01:01:53;;;;;;;92.32;48.63;;;;;;;10.00;99.45;98652.50;4982428;28;20031;-71
2024/02/15 01:04:18;;;;;;;93.05;49.05;;;;;;;9.91;99.56;98643.13;4982990;28;20054;-71
2024/02/15 01:06:44;;;;;;;86.20;47.40;;;;;;;9.97;99.66;98653.78;4953417;28;20065;-70
2024/02/15 01:09:10;;;;;;;87.78;48.22;;;;;;;10.00;99.40;98653.31;4952814;29;20027;-72
2024/02/15 01:11:37;;;;;;;83.32;47.50;;;;;;;9.96;99.24;98643.25;4950750;28;20047;-70
2024/02/15 01:14:02;;;;;;;82.53;48.28;;;;;;;10.04;99.32;98645.59;4947652;29;20039;-69
2024/02/15 01:16:28;;;;;;;88.18;47.88;;;;;;;10.05;99.17;98649.94;4954540;28;20039;-69
2024/02/15 01:18:54;;;;;;;81.05;46.80;;;;;;;9.99;98.88;98640.09;4974105;28;20035;-69
2024/02/15 01:21:19;;;;;;;73.03;44.13;;;;;;;10.04;98.96;98648.28;4987483;28;20110;-69
2024/02/15 01:23:46;;;;;;;80.45;46.22;;;;;;;10.05;99.39;98655.31;4956242;28;20070;-70
2024/02/15 01:26:13;;;;;;;76.88;45.25;;;;;;;10.06;99.29;98641.63;4974942;28;20582;-69
2024/02/15 01:28:39;;;;;;;86.00;48.40;;;;;;;9.97;98.90;98626.03;4966298;28;20081;-69
2024/02/15 01:31:06;;;;;;;96.47;50.03;;;;;;;10.07;98.88;98645.16;4957291;28;20035;-69
2024/02/15 01:33:32;;;;;;;83.05;46.40;;;;;;;10.04;98.73;98642.91;4955925;28;20166;-69
2024/02/15 01:35:57;;;;;;;84.07;46.28;;;;;;;10.03;99.18;98641.28;4957864;28;20122;-69
2024/02/15 01:38:22;;;;;;;95.47;49.28;;;;;;;10.02;99.31;98645.84;4965445;28;20078;-69
2024/02/15 01:40:48;;;;;;;78.95;46.60;;;;;;;10.02;99.49;98639.63;4963832;28;20031;-69
2024/02/15 01:43:14;;;;;;;80.35;45.65;;;;;;;10.05;99.26;98639.19;4955669;28;20023;-70
2024/02/15 01:45:39;;;;;;;86.88;47.22;;;;;;;10.07;99.13;98637.06;4954290;29;20043;-71
2024/02/15 01:48:05;;;;;;;80.18;46.00;;;;;;;10.03;99.24;98630.53;4955663;28;20090;-69
2024/02/15 01:50:32;;;;;;;86.60;47.72;;;;;;;10.04;99.37;98627.59;4988356;28;20102;-69
2024/02/15 01:52:58;;;;;;;93.93;50.08;;;;;;;10.04;99.49;98632.13;4992675;28;20027;-69
2024/02/15 01:55:24;;;;;;;84.05;45.13;;;;;;;10.01;99.60;98632.63;4955693;28;20078;-70
2024/02/15 01:57:53;;;;;;;91.00;48.85;;;;;;;10.01;99.36;98624.56;4985570;28;20026;-69
2024/02/15 02:00:19;;;;;;;79.97;46.08;;;;;;;10.01;99.46;98621.88;4951825;28;20039;-70
2024/02/15 02:02:45;;;;;;;99.13;50.30;;;;;;;10.04;99.40;98621.38;4956720;28;20029;-70
2024/02/15 02:05:10;;;;;;;88.72;47.72;;;;;;;10.05;99.14;98617.66;4954277;29;20138;-69
2024/02/15 02:07:37;;;;;;;96.65;49.67;;;;;;;10.05;99.28;98617.66;4946081;29;20031;-70
2024/02/15 02:10:04;;;;;;;72.57;43.63;;;;;;;10.04;99.38;98611.44;4957485;28;20051;-70
2024/02/15 02:12:30;;;;;;;72.13;42.13;;;;;;;10.00;99.50;98614.81;4938051;29;20094;-69
2024/02/15 02:14:56;;;;;;;93.35;46.85;;;;;;;9.99;99.38;98613.19;4994205;28;20050;-72
2024/02/15 02:17:21;;;;;;;77.53;43.38;;;;;;;10.05;99.44;98614.97;4967731;28;20038;-70
2024/02/15 02:19:49;;;;;;;102.40;50.28;;;;;;;10.03;99.33;98615.19;4986166;28;20067;-71
2024/02/15 02:22:14;;;;;;;83.32;47.05;;;;;;;10.03;99.56;98611.69;4986256;28;20047;-71
2024/02/15 02:25:16;;;;;;;75.55;42.40;;;;;;;10.00;98.99;98614.81;4986073;28;20546;-72
2024/02/15 02:27:41;;;;;;;85.32;45.90;;;;;;;10.00;99.39;98606.75;4959307;28;20126;-73
2024/02/15 02:30:21;;;;;;;74.13;42.22;;;;;;;10.03;99.52;98609.00;4961543;28;20118;-73
2024/02/15 02:32:47;;;;;;;88.03;46.97;;;;;;;9.88;99.83;98592.44;4957108;28;20035;-73
2024/02/15 02:35:13;;;;;;;94.30;47.88;;;;;;;9.88;99.63;98589.75;4969887;28;20027;-74
2024/02/15 02:37:39;;;;;;;76.13;44.60;;;;;;;9.93;99.73;98600.66;4969635;28;20043;-73
2024/02/15 02:40:08;;;;;;;81.88;44.72;;;;;;;9.97;99.62;98601.81;4953667;29;20031;-74
2024/02/15 02:42:36;;;;;;;90.60;46.70;;;;;;;10.04;99.79;98610.63;4985357;28;20035;-72
2024/02/15 02:45:01;;;;;;;73.20;43.50;;;;;;;9.96;99.77;98592.97;4969631;28;20458;-73
2024/02/15 02:47:26;;;;;;;78.10;43.80;;;;;;;10.04;99.25;98605.22;4939314;28;20077;-71
2024/02/15 02:49:52;;;;;;;86.80;45.35;;;;;;;10.10;99.49;98604.31;4959150;28;20034;-68
2024/02/15 02:52:17;;;;;;;74.75;42.85;;;;;;;10.11;99.77;98611.34;4985867;28;20550;-69
2024/02/15 02:54:43;;;;;;;76.80;42.92;;;;;;;10.11;99.46;98616.72;4985654;28;20023;-69
2024/02/15 02:57:08;;;;;;;80.15;44.90;;;;;;;10.09;99.80;98616.13;4960942;28;20479;-68
2024/02/15 02:59:35;;;;;;;84.32;46.17;;;;;;;10.10;99.73;98615.91;4945188;28;20031;-69
2024/02/15 03:02:01;;;;;;;80.20;43.53;;;;;;;10.09;99.47;98621.50;4970424;28;20047;-68
2024/02/15 03:04:26;;;;;;;81.25;46.25;;;;;;;10.04;99.91;98621.38;4956273;28;20039;-69
2024/02/15 03:06:53;;;;;;;85.63;47.63;;;;;;;10.04;100.00;98621.38;4953984;28;20046;-69
2024/02/15 03:09:20;;;;;;;77.80;45.20;;;;;;;10.05;100.00;98606.88;4954159;28;20106;-68
2024/02/15 03:11:45;;;;;;;66.15;41.78;;;;;;;10.00;100.00;98614.81;4954051;28;20047;-69
2024/02/15 03:14:12;;;;;;;75.40;43.13;;;;;;;10.05;100.00;98620.34;4948317;29;20023;-72
2024/02/15 03:16:38;;;;;;;73.35;43.20;;;;;;;10.07;100.00;98619.06;4953819;28;20039;-71
2024/02/15 03:19:04;;;;;;;71.65;44.28;;;;;;;10.07;100.00;98624.44;4985042;28;20042;-73
2024/02/15 03:21:30;;;;;;;69.30;42.25;;;;;;;10.08;100.00;98633.34;4952866;29;20064;-72
2024/02/15 03:23:55;;;;;;;72.40;44.15;;;;;;;10.03;100.00;98619.75;4962484;28;20158;-70
2024/02/15 03:26:36;;;;;;;73.20;43.67;;;;;;;10.07;100.00;98627.13;4953711;28;20038;-70
2024/02/15 03:29:03;;;;;;;79.43;46.13;;;;;;;10.10;100.00;98620.47;4953743;28;20121;-70
2024/02/15 03:31:29;;;;;;;75.72;46.05;;;;;;;10.05;100.00;98614.97;4960434;28;20031;-71
2024/02/15 03:33:55;;;;;;;83.15;45.58;;;;;;;10.10;100.00;98620.47;4984491;28;20067;-68
2024/02/15 03:36:21;;;;;;;65.25;41.17;;;;;;;10.08;100.00;98611.81;4961262;28;20166;-69
2024/02/15 03:38:47;;;;;;;66.97;40.35;;;;;;;10.10;100.00;98610.53;4952957;28;20083;-71
2024/02/15 03:41:12;;;;;;;58.05;38.42;;;;;;;10.12;100.00;98610.31;4952081;29;20059;-71
2024/02/15 03:43:38;;;;;;;67.32;41.65;;;;;;;10.10;100.00;98607.84;4956089;28;20059;-71
2024/02/15 03:46:04;;;;;;;66.90;41.00;;;;;;;10.08;100.00;98603.75;4992095;28;20023;-73
2024/02/15 03:48:30;;;;;;;64.05;40.88;;;;;;;10.07;100.00;98610.16;4953587;28;20046;-71
2024/02/15 03:50:56;;;;;;;55.63;37.95;;;;;;;10.09;100.00;98608.06;4953430;28;20031;-70
2024/02/15 03:53:22;;;;;;;55.28;37.55;;;;;;;10.05;100.00;98606.88;4953369;28;20142;-72
2024/02/15 03:55:47;;;;;;;61.97;39.42;;;;;;;10.17;100.00;98623.91;4953290;28;20037;-71
2024/02/15 03:58:14;;;;;;;58.72;38.75;;;;;;;10.16;100.00;98619.56;4953121;28;20051;-69
2024/02/15 04:00:40;;;;;;;54.17;37.15;;;;;;;10.18;100.00;98628.22;4983869;28;20023;-69
2024/02/15 04:03:05;;;;;;;57.30;37.45;;;;;;;10.12;100.00;98623.78;4954599;28;20576;-69
2024/02/15 04:05:31;;;;;;;55.80;37.63;;;;;;;10.19;100.00;98625.31;4953100;29;20035;-69
2024/02/15 04:07:56;;;;;;;53.08;36.42;;;;;;;10.07;100.00;98615.53;4953079;28;20035;-71
2024/02/15 04:10:22;;;;;;;48.30;34.55;;;;;;;10.20;100.00;98631.50;4954380;28;20377;-69
2024/02/15 04:12:47;;;;;;;53.92;35.53;;;;;;;10.24;100.00;98643.47;4957872;28;20039;-70
2024/02/15 04:15:15;;;;;;;55.60;35.90;;;;;;;10.22;100.00;98635.59;4961102;28;20038;-71
2024/02/15 04:17:42;;;;;;;51.78;36.63;;;;;;;10.22;99.93;98629.44;4983212;28;20464;-70
2024/02/15 04:20:09;;;;;;;59.03;38.35;;;;;;;10.20;100.00;98623.44;4951841;28;20029;-70
2024/02/15 04:22:37;;;;;;;62.13;39.38;;;;;;;10.21;99.69;98628.59;4952198;29;20503;-71
2024/02/15 04:25:09;;;;;;;67.10;41.47;;;;;;;10.25;99.69;98635.16;4958915;28;20031;-71
2024/02/15 04:27:34;;;;;;;60.83;38.33;;;;;;;10.15;100.00;98624.13;4953427;28;20081;-71
2024/02/15 04:30:02;;;;;;;54.05;35.70;;;;;;;10.22;99.73;98632.13;4952874;28;20455;-70
2024/02/15 04:32:28;;;;;;;56.13;36.58;;;;;;;10.22;99.80;98634.81;4952993;28;20046;-70
2024/02/15 04:34:54;;;;;;;62.17;39.30;;;;;;;10.11;100.00;98617.56;4941524;28;20475;-70
2024/02/15 04:37:20;;;;;;;53.42;37.65;;;;;;;10.18;100.00;98639.00;4958445;28;20039;-70
2024/02/15 04:39:46;;;;;;;64.88;37.92;;;;;;;10.08;99.53;98619.88;4958438;28;20031;-72
2024/02/15 04:42:11;;;;;;;57.85;36.35;;;;;;;10.03;99.83;98617.06;4952983;28;20039;-74
2024/02/15 04:44:40;;;;;;;53.85;35.97;;;;;;;10.09;99.57;98613.44;4967723;28;20027;-73
2024/02/15 04:47:06;;;;;;;58.17;36.88;;;;;;;10.19;99.55;98632.56;4951448;29;20039;-72
2024/02/15 04:49:32;;;;;;;51.45;35.63;;;;;;;10.14;99.78;98621.69;4951370;29;20110;-72
2024/02/15 04:51:57;;;;;;;51.97;35.20;;;;;;;10.09;99.65;98613.44;4955955;28;20469;-72
2024/02/15 04:54:23;;;;;;;49.40;34.03;;;;;;;9.99;99.40;98589.78;4956637;28;20110;-74
2024/02/15 04:56:50;;;;;;;48.05;34.50;;;;;;;10.04;99.78;98621.38;4987559;28;20039;-73
2024/02/15 04:59:16;;;;;;;51.50;35.60;;;;;;;10.11;99.76;98616.72;4965150;28;20063;-71
2024/02/15 05:01:45;;;;;;;53.20;35.60;;;;;;;10.19;99.87;98621.81;4959661;28;20130;-70
2024/02/15 05:04:11;;;;;;;56.00;37.85;;;;;;;10.18;99.63;98618.28;4939714;29;20027;-71
2024/02/15 05:06:37;;;;;;;53.58;36.55;;;;;;;10.19;99.52;98625.31;4948738;29;20047;-71
2024/02/15 05:09:10;;;;;;;49.55;36.38;;;;;;;10.17;100.00;98622.06;4966860;28;20027;-71
2024/02/15 05:11:46;;;;;;;42.17;32.95;;;;;;;10.20;99.37;98626.13;4985168;28;20126;-72
2024/02/15 05:14:11;;;;;;;48.95;35.50;;;;;;;10.13;99.92;98614.63;4986558;28;20043;-73
2024/02/15 05:16:42;;;;;;;52.25;36.85;;;;;;;10.20;99.59;98626.94;4987088;28;20046;-71
2024/02/15 05:19:10;;;;;;;57.15;37.47;;;;;;;10.17;99.41;98621.22;4956101;28;20224;-71
2024/02/15 05:21:35;;;;;;;56.00;38.10;;;;;;;10.13;99.41;98615.47;4986828;28;20046;-72
2024/02/15 05:24:00;;;;;;;56.30;37.55;;;;;;;10.08;99.46;98611.81;4981720;28;20085;-72
2024/02/15 05:26:26;;;;;;;58.42;36.92;;;;;;;10.19;99.87;98630.72;4954416;28;20118;-72
2024/02/15 05:28:51;;;;;;;48.47;35.17;;;;;;;10.23;99.29;98639.13;4970913;28;20069;-72
2024/02/15 05:31:20;;;;;;;52.42;36.38;;;;;;;10.13;99.36;98620.03;4955885;28;20086;-71
2024/02/15 05:33:49;;;;;;;55.20;38.13;;;;;;;10.19;99.38;98629.88;4986763;28;20043;-71
2024/02/15 05:36:15;;;;;;;51.42;36.10;;;;;;;10.17;99.41;98626.59;4986711;28;20023;-71
2024/02/15 05:38:41;;;;;;;57.78;39.15;;;;;;;10.19;99.43;98637.97;4954518;29;20089;-71
2024/02/15 05:41:09;;;;;;;56.05;36.92;;;;;;;10.14;99.32;98629.75;4979004;28;20027;-72
2024/02/15 05:43:36;;;;;;;55.08;38.03;;;;;;;10.14;99.07;98621.69;4961469;28;20099;-70
2024/02/15 05:46:02;;;;;;;47.58;35.70;;;;;;;10.19;99.21;98630.72;4954552;29;20027;-70
2024/02/15 05:48:28;;;;;;;45.40;33.70;;;;;;;10.12;99.44;98623.78;4994758;28;20038;-71
2024/02/15 05:50:55;;;;;;;42.78;33.60;;;;;;;10.12;98.67;98627.31;4938411;29;20393;-71
2024/02/15 05:53:20;;;;;;;53.22;39.78;;;;;;;10.15;99.49;98636.78;4986553;28;20491;-70
2024/02/15 05:55:46;;;;;;;51.70;36.00;;;;;;;10.01;99.54;98627.25;4954167;29;20023;-71
2024/02/15 05:58:13;;;;;;;46.58;34.67;;;;;;;10.06;99.27;98624.69;4955342;28;20129;-74
2024/02/15 06:00:39;;;;;;;49.92;35.47;;;;;;;10.05;99.28;98623.84;4990580;28;20072;-72
2024/02/15 06:03:06;;;;;;;45.30;33.35;;;;;;;10.08;99.41;98627.97;4937527;29;20122;-73
2024/02/15 06:05:32;;;;;;;44.42;34.00;;;;;;;10.18;99.27;98637.13;4953928;28;20523;-72
2024/02/15 06:07:58;;;;;;;46.90;38.10;;;;;;;10.17;99.01;98642.75;4970187;28;20475;-72
2024/02/15 06:10:25;;;;;;;50.05;36.60;;;;;;;10.19;99.07;98640.66;4953831;28;20039;-72
2024/02/15 06:12:50;;;;;;;47.75;32.72;;;;;;;10.10;98.88;98625.84;4955377;28;20039;-72
2024/02/15 06:15:16;;;;;;;40.40;30.48;;;;;;;10.05;99.36;98633.78;4938140;29;20093;-72
2024/02/15 06:17:44;;;;;;;46.67;34.30;;;;;;;10.16;98.94;98644.63;4986007;28;20074;-72
2024/02/15 06:20:11;;;;;;;41.38;33.55;;;;;;;10.10;98.98;98636.63;4946257;29;20472;-72
2024/02/15 06:22:38;;;;;;;38.47;29.52;;;;;;;10.17;99.09;98653.53;4948945;29;20050;-72
2024/02/15 06:25:03;;;;;;;42.50;34.42;;;;;;;10.19;99.01;98648.72;4953796;29;20082;-72
2024/02/15 06:27:28;;;;;;;43.53;32.10;;;;;;;10.18;98.96;98655.16;4985765;28;20038;-72
2024/02/15 06:40:49;;;;;;;36.40;29.80;;;;;;;10.12;99.10;98651.53;4952922;29;20039;-72
2024/02/15 06:43:16;;;;;;;34.38;26.52;;;;;;;10.05;99.22;98644.56;4953208;29;20046;-74
2024/02/15 06:45:46;;;;;;;37.42;28.67;;;;;;;10.12;99.06;98650.69;4985189;28;20571;-73
2024/02/15 06:48:12;;;;;;;34.25;27.85;;;;;;;10.19;98.99;98654.09;4976818;28;20035;-74
2024/02/15 06:50:37;;;;;;;39.63;31.58;;;;;;;10.14;98.82;98643.22;4957948;28;20031;-74
2024/02/15 06:53:03;;;;;;;34.75;30.20;;;;;;;10.08;99.30;98634.13;4941810;28;20118;-74
2024/02/15 06:55:28;;;;;;;36.95;30.67;;;;;;;10.08;99.09;98639.53;4985558;28;20031;-74
2024/02/15 06:57:55;;;;;;;37.25;30.40;;;;;;;10.22;99.06;98656.34;4954836;28;20046;-73
2024/02/15 07:00:20;;;;;;;36.78;30.65;;;;;;;10.23;99.05;98648.03;4954641;28;20023;-72
2024/02/15 07:02:48;;;;;;;34.40;29.17;;;;;;;10.22;98.89;98650.97;4985705;28;20394;-73
2024/02/15 07:05:13;;;;;;;34.83;26.48;;;;;;;10.13;99.21;98646.94;4977388;28;20027;-72
2024/02/15 07:07:39;;;;;;;39.28;31.45;;;;;;;10.24;98.85;98657.75;4960591;28;20085;-72
2024/02/15 07:10:05;;;;;;;41.03;31.30;;;;;;;10.16;98.91;98641.94;4954085;28;20023;-72
2024/02/15 07:12:31;;;;;;;66.70;45.40;;;;;;;10.29;98.81;98649.78;4954419;28;20244;-72
2024/02/15 07:14:57;;;;;;;58.10;40.72;;;;;;;10.33;98.67;98652.84;4969097;28;20442;-73
2024/02/15 07:17:23;;;;;;;123.05;83.10;;;;;;;10.35;98.87;98650.75;4952949;29;20119;-72
2024/02/15 07:19:51;;;;;;;36.83;30.27;;;;;;;10.34;98.74;98662.56;4952888;28;20031;-72
2024/02/15 07:22:16;;;;;;;30.73;25.83;;;;;;;10.37;98.70;98648.63;4960830;28;20081;-72
2024/02/15 07:24:42;;;;;;;28.52;24.95;;;;;;;10.39;98.91;98655.44;4952921;29;20590;-73
2024/02/15 07:27:07;;;;;;;29.55;24.80;;;;;;;10.41;98.76;98660.56;4952695;29;20043;-71
2024/02/15 07:29:34;;;;;;;25.92;22.70;;;;;;;10.46;98.46;98663.41;4954106;28;20030;-71
2024/02/15 07:32:06;;;;;;;27.45;24.20;;;;;;;10.43;98.14;98642.34;4953970;28;20039;-71
2024/02/15 07:34:31;;;;;;;27.63;24.15;;;;;;;10.31;98.05;98628.03;4952664;29;20038;-72
2024/02/15 07:36:59;;;;;;;30.90;24.85;;;;;;;10.53;98.61;98661.41;4971319;28;20483;-73
2024/02/15 07:39:27;;;;;;;26.00;23.17;;;;;;;10.57;98.08;98649.13;4953707;28;20078;-70
2024/02/15 07:41:58;;;;;;;29.00;23.20;;;;;;;10.57;98.18;98659.09;4952957;28;20082;-72
2024/02/15 07:44:24;;;;;;;29.38;24.02;;;;;;;10.60;98.67;98659.44;4968031;28;20035;-72
2024/02/15 07:46:50;;;;;;;25.13;21.95;;;;;;;10.58;98.35;98640.00;4959320;28;20427;-72
2024/02/15 07:49:17;;;;;;;26.23;23.35;;;;;;;10.70;97.98;98658.84;4952250;29;20042;-71
2024/02/15 07:51:43;;;;;;;25.23;22.60;;;;;;;10.64;98.27;98649.81;4952213;28;20030;-72
2024/02/15 07:54:09;;;;;;;27.48;22.75;;;;;;;10.73;97.90;98656.53;4935239;29;20125;-72
2024/02/15 07:56:35;;;;;;;26.33;21.55;;;;;;;10.55;97.71;98624.28;4950355;29;20162;-71
2024/02/15 07:59:00;;;;;;;22.65;20.05;;;;;;;10.77;98.23;98656.88;4948628;29;20082;-72
2024/02/15 08:01:26;;;;;;;24.45;21.92;;;;;;;10.77;98.26;98654.16;4957171;28;20027;-72
2024/02/15 08:03:52;;;;;;;28.27;22.05;;;;;;;10.82;97.88;98651.59;4947454;29;20033;-72
2024/02/15 08:06:18;;;;;;;25.40;21.58;;;;;;;10.87;97.68;98659.81;4952063;29;20553;-72
2024/02/15 08:08:47;;;;;;;29.15;23.77;;;;;;;10.88;97.80;98654.16;4936107;29;20122;-71
2024/02/15 08:11:17;;;;;;;22.83;20.45;;;;;;;10.88;97.71;98646.09;4967848;28;20470;-73
2024/02/15 08:13:49;;;;;;;27.60;22.80;;;;;;;10.88;97.46;98645.25;4959401;28;20515;-71
2024/02/15 08:16:16;;;;;;;27.13;22.02;;;;;;;10.94;97.82;98652.41;4968360;28;20074;-71
2024/02/15 08:18:46;;;;;;;23.83;20.52;;;;;;;10.93;97.39;98635.44;4959365;28;20023;-73
2024/02/15 08:21:11;;;;;;;23.92;21.42;;;;;;;10.93;97.67;98632.72;4951352;28;20040;-72
2024/02/15 08:23:37;;;;;;;24.67;20.98;;;;;;;11.07;97.21;98639.50;4960160;28;20026;-72
2024/02/15 08:26:03;;;;;;;22.77;20.42;;;;;;;11.07;96.67;98628.72;4952506;28;20166;-71
2024/02/15 08:28:28;;;;;;;23.15;20.65;;;;;;;11.15;97.01;98634.81;4935955;29;20027;-71
2024/02/15 08:30:56;;;;;;;24.38;21.08;;;;;;;11.19;97.21;98630.56;4967870;28;20039;-72
2024/02/15 08:33:21;;;;;;;23.55;19.40;;;;;;;11.13;96.88;98625.06;4952015;29;20043;-71
2024/02/15 08:35:46;;;;;;;19.00;17.10;;;;;;;11.17;96.79;98628.13;4983772;28;20035;-71
2024/02/15 08:38:12;;;;;;;21.23;17.05;;;;;;;11.21;96.48;98628.47;4953134;28;20038;-72
2024/02/15 08:40:37;;;;;;;19.20;17.05;;;;;;;11.23;96.36;98626.34;4960855;28;20039;-70
2024/02/15 08:43:03;;;;;;;19.50;16.02;;;;;;;11.19;96.67;98603.63;4953112;28;20051;-71
2024/02/15 08:45:28;;;;;;;16.58;14.82;;;;;;;11.33;96.00;98621.16;4985725;28;20479;-72
2024/02/15 08:47:53;;;;;;;15.93;14.27;;;;;;;11.36;96.55;98626.09;4957270;28;20026;-71
2024/02/15 08:50:21;;;;;;;16.85;15.15;;;;;;;11.36;95.64;98615.31;4955053;28;20063;-72
2024/02/15 08:52:46;;;;;;;17.80;15.10;;;;;;;11.45;96.15;98632.75;4967636;28;20028;-72
2024/02/15 08:55:15;;;;;;;18.25;14.25;;;;;;;11.47;95.58;98638.72;4983694;28;20451;-73
2024/02/15 08:57:46;;;;;;;18.63;15.18;;;;;;;11.50;95.71;98632.84;4959050;28;20114;-72
2024/02/15 09:00:16;;;;;;;16.23;13.93;;;;;;;11.53;95.63;98618.88;4952883;28;20042;-71
2024/02/15 09:02:52;;;;;;;16.77;14.20;;;;;;;11.68;94.90;98630.00;4964360;28;20043;-72
2024/02/15 09:05:18;;;;;;;18.02;14.38;;;;;;;11.72;94.34;98623.06;4952649;28;20039;-72
2024/02/15 09:07:47;;;;;;;14.90;13.60;;;;;;;11.81;94.60;98632.41;4951299;29;20087;-72
2024/02/15 09:10:17;;;;;;;16.33;14.43;;;;;;;11.92;94.53;98625.31;4966994;28;20052;-71
2024/02/15 09:12:44;;;;;;;17.45;14.20;;;;;;;11.96;93.91;98621.06;4951651;29;20049;-73
2024/02/15 09:15:13;;;;;;;19.45;14.50;;;;;;;11.99;93.99;98613.31;4984866;28;20478;-72
2024/02/15 09:17:41;;;;;;;22.70;13.95;;;;;;;12.15;93.63;98617.91;4945091;29;20436;-72
2024/02/15 09:20:08;;;;;;;23.35;15.18;;;;;;;12.21;93.27;98621.50;4945634;28;20399;-72
2024/02/15 09:22:35;;;;;;;20.73;14.63;;;;;;;12.34;93.36;98629.31;4948638;29;20028;-71
2024/02/15 09:25:02;;;;;;;18.00;13.52;;;;;;;12.41;93.00;98630.78;4950660;29;20041;-72
2024/02/15 09:27:28;;;;;;;20.10;14.35;;;;;;;12.52;93.00;98636.34;4934537;29;20031;-71
2024/02/15 09:29:53;;;;;;;15.75;11.82;;;;;;;12.60;92.46;98634.06;4950619;28;20042;-72
2024/02/15 09:32:18;;;;;;;10.68;9.15;;;;;;;12.53;91.72;98605.56;4951295;28;20094;-72
2024/02/15 09:34:44;;;;;;;12.80;10.52;;;;;;;12.54;91.26;98609.88;4952033;29;20503;-72
2024/02/15 09:37:09;;;;;;;10.18;7.45;;;;;;;12.62;91.26;98609.50;4968432;28;20023;-72
2024/02/15 09:39:37;;;;;;;9.90;7.03;;;;;;;12.80;90.56;98630.84;4956027;29;20045;-72
2024/02/15 09:42:03;;;;;;;8.73;6.80;;;;;;;12.84;90.84;98621.16;4955618;28;20495;-72
2024/02/15 09:44:29;;;;;;;8.30;7.07;;;;;;;12.85;89.69;98625.50;4956902;28;20168;-72
2024/02/15 09:47:05;;;;;;;10.48;7.28;;;;;;;12.97;89.36;98621.66;4959009;28;20047;-73
2024/02/15 09:49:36;;;;;;;8.65;6.75;;;;;;;12.99;89.14;98626.78;4954468;29;20503;-73
2024/02/15 09:52:03;;;;;;;7.03;6.32;;;;;;;13.02;88.51;98608.16;4957428;28;20043;-73
2024/02/15 09:54:29;;;;;;;9.48;6.10;;;;;;;13.07;88.30;98612.84;4946315;29;20563;-72
2024/02/15 09:56:55;;;;;;;7.68;6.45;;;;;;;13.11;87.98;98597.78;4970126;28;20501;-71
2024/02/15 09:59:21;;;;;;;9.50;5.97;;;;;;;13.33;87.81;98617.53;4954518;29;20027;-72
2024/02/15 10:01:47;;;;;;;6.40;5.43;;;;;;;13.30;87.53;98607.25;4966447;28;20494;-72
2024/02/15 10:04:15;;;;;;;8.75;5.70;;;;;;;13.34;86.96;98610.25;4955486;28;20033;-72
2024/02/15 10:06:42;;;;;;;8.73;5.68;;;;;;;13.44;86.70;98603.06;4954130;28;20114;-72
2024/02/15 10:09:29;;;;;;;9.40;5.60;;;;;;;13.45;85.97;98612.81;4966350;28;20142;-72
2024/02/15 10:11:58;;;;;;;5.60;5.10;;;;;;;13.51;85.44;98602.88;4964210;28;20036;-72
2024/02/15 10:14:28;;;;;;;6.65;5.72;;;;;;;13.57;85.86;98591.88;4994402;28;20027;-72
2024/02/15 10:16:54;;;;;;;6.35;5.43;;;;;;;13.53;85.33;98601.56;4953915;29;20519;-72
2024/02/15 10:19:24;;;;;;;5.88;5.22;;;;;;;13.61;85.07;98592.16;4953945;29;20542;-72
2024/02/15 10:21:56;;;;;;;5.97;5.28;;;;;;;13.68;84.36;98598.19;4986336;28;20031;-73
2024/02/15 10:24:24;;;;;;;9.05;6.30;;;;;;;13.66;84.12;98590.34;4970851;28;20466;-72
2024/02/15 10:26:50;;;;;;;9.15;6.97;;;;;;;13.74;84.18;98600.72;4975977;28;20023;-72
2024/02/15 10:29:17;;;;;;;7.57;5.97;;;;;;;13.77;83.89;98600.19;4985877;28;20542;-73
2024/02/15 10:31:56;;;;;;;8.98;5.55;;;;;;;13.79;83.28;98599.94;4955079;28;20019;-73
2024/02/15 10:34:23;;;;;;;11.27;4.72;;;;;;;13.76;83.59;98587.75;4945250;28;20031;-73
2024/02/15 10:36:49;;;;;;;6.05;4.50;;;;;;;13.88;83.54;98596.50;4954483;28;20027;-73
2024/02/15 10:39:21;;;;;;;7.32;4.80;;;;;;;13.88;83.34;98593.00;4993574;28;20039;-72
2024/02/15 10:41:48;;;;;;;6.65;5.18;;;;;;;13.90;83.23;98595.44;4985609;28;20503;-72
2024/02/15 10:44:17;;;;;;;5.97;4.75;;;;;;;13.79;83.12;98583.72;4947935;29;20027;-71
2024/02/15 10:46:43;;;;;;;7.32;4.72;;;;;;;13.75;82.94;98567.16;4985384;28;20097;-72
2024/02/15 10:49:09;;;;;;;7.70;4.35;;;;;;;13.79;82.55;98570.97;4949383;28;20023;-72
2024/02/15 10:51:35;;;;;;;7.97;4.57;;;;;;;13.74;82.65;98567.41;4985015;28;20043;-72
2024/02/15 10:54:05;;;;;;;7.22;4.20;;;;;;;13.78;82.66;98580.19;4964502;28;20019;-72
2024/02/15 10:56:37;;;;;;;5.65;4.78;;;;;;;13.79;82.38;98581.78;4987334;28;20043;-72
2024/02/15 10:59:26;;;;;;;5.85;4.50;;;;;;;13.68;82.10;98563.81;4953295;29;20130;-73
2024/02/15 11:01:55;;;;;;;8.20;4.40;;;;;;;13.76;82.96;98574.22;4946960;28;20038;-72
2024/02/15 11:04:25;;;;;;;6.22;4.43;;;;;;;13.77;82.89;98570.41;4949780;29;20034;-72
2024/02/15 11:06:52;;;;;;;7.32;4.20;;;;;;;13.77;82.55;98570.41;4982554;28;20039;-73
2024/02/15 11:09:17;;;;;;;6.30;4.18;;;;;;;13.79;82.58;98564.75;4967323;28;20027;-72
2024/02/15 11:11:44;;;;;;;6.88;4.32;;;;;;;13.84;82.74;98571.03;4984060;28;20038;-72
2024/02/15 11:14:34;;;;;;;9.68;4.28;;;;;;;13.90;82.32;98576.50;4983259;28;20027;-72
2024/02/15 11:17:06;;;;;;;7.95;4.30;;;;;;;13.96;82.38;98567.34;4950213;28;20142;-72
2024/02/15 11:19:34;;;;;;;7.28;3.95;;;;;;;14.07;81.85;98559.03;4967214;28;20085;-72
2024/02/15 11:22:03;;;;;;;4.82;3.63;;;;;;;14.09;81.96;98562.34;4954071;28;20113;-72
2024/02/15 11:24:32;;;;;;;5.53;3.50;;;;;;;14.06;81.62;98540.34;4988226;28;20035;-71
2024/02/15 11:27:04;;;;;;;6.05;3.60;;;;;;;14.14;81.45;98537.19;4973655;28;20031;-73
2024/02/15 11:29:51;;;;;;;4.57;3.35;;;;;;;14.27;81.04;98550.28;4970720;28;20399;-72